sensor_id;sensor_type;location;lat;lon;timestamp;P1;durP1;ratioP1;P2;durP2;ratioP2
4827;SDS011;2428;48.732;9.148;2023-07-30T00:01:19;1.50;;;1.40;;
4827;SDS011;2428;48.732;9.148;2023-07-30T00:03:44;1.77;;;1.13;;
4827;SDS011;2428;48.732;9.148;2023-07-30T00:06:10;1.60;;;1.50;;
4827;SDS011;2428;48.732;9.148;2023-07-30T00:08:36;1.27;;;1.17;;
4827;SDS011;2428;48.732;9.148;2023-07-30T00:11:01;1.40;;;1.00;;
4827;SDS011;2428;48.732;9.148;2023-07-30T00:13:27;1.60;;;1.13;;
4827;SDS011;2428;48.732;9.148;2023-07-30T00:15:52;1.17;;;1.07;;
4827;SDS011;2428;48.732;9.148;2023-07-30T00:18:18;1.13;;;1.07;;
4827;SDS011;2428;48.732;9.148;2023-07-30T00:20:43;2.40;;;0.97;;
4827;SDS011;2428;48.732;9.148;2023-07-30T00:23:09;1.83;;;1.00;;
4827;SDS011;2428;48.732;9.148;2023-07-30T00:25:35;1.50;;;1.40;;
4827;SDS011;2428;48.732;9.148;2023-07-30T00:28:00;1.50;;;1.17;;
4827;SDS011;2428;48.732;9.148;2023-07-30T00:30:26;2.10;;;1.43;;
4827;SDS011;2428;48.732;9.148;2023-07-30T00:32:51;1.50;;;1.40;;
4827;SDS011;2428;48.732;9.148;2023-07-30T00:35:17;1.37;;;1.27;;
4827;SDS011;2428;48.732;9.148;2023-07-30T00:37:42;1.73;;;1.53;;
4827;SDS011;2428;48.732;9.148;2023-07-30T00:40:08;1.40;;;1.30;;
4827;SDS011;2428;48.732;9.148;2023-07-30T00:42:34;1.53;;;1.43;;
4827;SDS011;2428;48.732;9.148;2023-07-30T00:44:59;1.67;;;1.57;;
4827;SDS011;2428;48.732;9.148;2023-07-30T00:47:25;2.60;;;2.03;;
4827;SDS011;2428;48.732;9.148;2023-07-30T00:49:51;3.07;;;2.40;;
4827;SDS011;2428;48.732;9.148;2023-07-30T00:52:18;2.80;;;2.30;;
4827;SDS011;2428;48.732;9.148;2023-07-30T00:54:46;1.40;;;1.30;;
4827;SDS011;2428;48.732;9.148;2023-07-30T00:57:13;2.70;;;2.30;;
4827;SDS011;2428;48.732;9.148;2023-07-30T00:59:39;2.67;;;2.03;;
4827;SDS011;2428;48.732;9.148;2023-07-30T01:02:05;2.93;;;2.20;;
4827;SDS011;2428;48.732;9.148;2023-07-30T01:04:31;2.57;;;2.37;;
4827;SDS011;2428;48.732;9.148;2023-07-30T01:06:57;2.60;;;2.40;;
4827;SDS011;2428;48.732;9.148;2023-07-30T01:09:23;5.17;;;1.73;;
4827;SDS011;2428;48.732;9.148;2023-07-30T01:11:49;2.50;;;2.23;;
4827;SDS011;2428;48.732;9.148;2023-07-30T01:14:16;1.83;;;1.67;;
4827;SDS011;2428;48.732;9.148;2023-07-30T01:16:44;1.83;;;1.73;;
4827;SDS011;2428;48.732;9.148;2023-07-30T01:19:09;2.73;;;2.23;;
4827;SDS011;2428;48.732;9.148;2023-07-30T01:21:35;2.37;;;2.13;;
4827;SDS011;2428;48.732;9.148;2023-07-30T01:24:01;2.37;;;2.23;;
4827;SDS011;2428;48.732;9.148;2023-07-30T01:26:30;2.23;;;2.00;;
4827;SDS011;2428;48.732;9.148;2023-07-30T01:29:14;2.03;;;1.93;;
4827;SDS011;2428;48.732;9.148;2023-07-30T01:31:46;2.13;;;2.03;;
4827;SDS011;2428;48.732;9.148;2023-07-30T01:34:22;4.23;;;2.30;;
4827;SDS011;2428;48.732;9.148;2023-07-30T01:36:49;2.40;;;2.20;;
4827;SDS011;2428;48.732;9.148;2023-07-30T01:39:16;2.60;;;2.20;;
4827;SDS011;2428;48.732;9.148;2023-07-30T01:41:42;2.13;;;1.93;;
4827;SDS011;2428;48.732;9.148;2023-07-30T01:44:08;2.60;;;2.20;;
4827;SDS011;2428;48.732;9.148;2023-07-30T01:46:33;2.60;;;1.90;;
4827;SDS011;2428;48.732;9.148;2023-07-30T01:48:59;2.80;;;2.10;;
4827;SDS011;2428;48.732;9.148;2023-07-30T01:51:24;2.00;;;1.90;;
4827;SDS011;2428;48.732;9.148;2023-07-30T01:53:50;2.73;;;2.00;;
4827;SDS011;2428;48.732;9.148;2023-07-30T01:56:15;2.77;;;2.57;;
4827;SDS011;2428;48.732;9.148;2023-07-30T01:58:41;5.77;;;2.13;;
4827;SDS011;2428;48.732;9.148;2023-07-30T02:01:07;2.90;;;2.70;;
4827;SDS011;2428;48.732;9.148;2023-07-30T02:03:32;2.80;;;2.40;;
4827;SDS011;2428;48.732;9.148;2023-07-30T02:05:58;2.40;;;2.20;;
4827;SDS011;2428;48.732;9.148;2023-07-30T02:08:24;2.10;;;2.00;;
4827;SDS011;2428;48.732;9.148;2023-07-30T02:10:56;2.90;;;2.20;;
4827;SDS011;2428;48.732;9.148;2023-07-30T02:13:22;2.50;;;2.20;;
4827;SDS011;2428;48.732;9.148;2023-07-30T02:15:48;2.50;;;2.30;;
4827;SDS011;2428;48.732;9.148;2023-07-30T02:18:14;3.10;;;2.50;;
4827;SDS011;2428;48.732;9.148;2023-07-30T02:20:39;1.97;;;1.83;;
4827;SDS011;2428;48.732;9.148;2023-07-30T02:23:05;3.40;;;2.37;;
4827;SDS011;2428;48.732;9.148;2023-07-30T02:25:30;2.50;;;2.30;;
4827;SDS011;2428;48.732;9.148;2023-07-30T02:27:56;2.30;;;2.10;;
4827;SDS011;2428;48.732;9.148;2023-07-30T02:30:23;2.20;;;1.80;;
4827;SDS011;2428;48.732;9.148;2023-07-30T02:32:49;2.10;;;1.80;;
4827;SDS011;2428;48.732;9.148;2023-07-30T02:35:15;2.53;;;1.77;;
4827;SDS011;2428;48.732;9.148;2023-07-30T02:37:40;1.67;;;1.50;;
4827;SDS011;2428;48.732;9.148;2023-07-30T02:40:06;2.03;;;1.70;;
4827;SDS011;2428;48.732;9.148;2023-07-30T02:42:32;2.10;;;2.00;;
4827;SDS011;2428;48.732;9.148;2023-07-30T02:44:57;2.03;;;1.93;;
4827;SDS011;2428;48.732;9.148;2023-07-30T02:47:23;1.47;;;1.37;;
4827;SDS011;2428;48.732;9.148;2023-07-30T02:49:48;1.60;;;1.40;;
4827;SDS011;2428;48.732;9.148;2023-07-30T02:52:15;2.40;;;2.20;;
4827;SDS011;2428;48.732;9.148;2023-07-30T02:54:41;2.20;;;1.80;;
4827;SDS011;2428;48.732;9.148;2023-07-30T02:57:06;1.50;;;1.40;;
4827;SDS011;2428;48.732;9.148;2023-07-30T02:59:32;2.57;;;2.37;;
4827;SDS011;2428;48.732;9.148;2023-07-30T03:02:01;1.70;;;1.60;;
4827;SDS011;2428;48.732;9.148;2023-07-30T03:04:27;1.47;;;1.47;;
4827;SDS011;2428;48.732;9.148;2023-07-30T03:06:52;1.80;;;1.70;;
4827;SDS011;2428;48.732;9.148;2023-07-30T03:09:18;1.37;;;1.27;;
4827;SDS011;2428;48.732;9.148;2023-07-30T03:11:43;3.10;;;1.90;;
4827;SDS011;2428;48.732;9.148;2023-07-30T03:14:09;1.70;;;1.60;;
4827;SDS011;2428;48.732;9.148;2023-07-30T03:16:34;2.57;;;1.90;;
4827;SDS011;2428;48.732;9.148;2023-07-30T03:19:00;2.30;;;2.00;;
4827;SDS011;2428;48.732;9.148;2023-07-30T03:21:26;2.10;;;2.00;;
4827;SDS011;2428;48.732;9.148;2023-07-30T03:23:51;1.97;;;1.83;;
4827;SDS011;2428;48.732;9.148;2023-07-30T03:26:17;2.33;;;2.13;;
4827;SDS011;2428;48.732;9.148;2023-07-30T03:28:42;2.27;;;1.40;;
4827;SDS011;2428;48.732;9.148;2023-07-30T03:31:08;2.10;;;1.90;;
4827;SDS011;2428;48.732;9.148;2023-07-30T03:33:33;1.83;;;1.73;;
4827;SDS011;2428;48.732;9.148;2023-07-30T03:35:59;2.33;;;1.67;;
4827;SDS011;2428;48.732;9.148;2023-07-30T03:38:25;1.80;;;1.70;;
4827;SDS011;2428;48.732;9.148;2023-07-30T03:40:50;1.63;;;1.53;;
4827;SDS011;2428;48.732;9.148;2023-07-30T03:43:16;2.10;;;2.00;;
4827;SDS011;2428;48.732;9.148;2023-07-30T03:45:42;3.57;;;1.83;;
4827;SDS011;2428;48.732;9.148;2023-07-30T03:48:07;1.93;;;1.73;;
4827;SDS011;2428;48.732;9.148;2023-07-30T03:50:33;2.03;;;1.83;;
4827;SDS011;2428;48.732;9.148;2023-07-30T03:52:58;2.50;;;1.60;;
4827;SDS011;2428;48.732;9.148;2023-07-30T03:55:24;2.70;;;1.80;;
4827;SDS011;2428;48.732;9.148;2023-07-30T03:57:49;2.03;;;1.93;;
4827;SDS011;2428;48.732;9.148;2023-07-30T04:00:15;2.07;;;1.87;;
4827;SDS011;2428;48.732;9.148;2023-07-30T04:02:40;2.47;;;2.27;;
4827;SDS011;2428;48.732;9.148;2023-07-30T04:05:06;2.10;;;1.73;;
4827;SDS011;2428;48.732;9.148;2023-07-30T04:07:32;1.90;;;1.80;;
4827;SDS011;2428;48.732;9.148;2023-07-30T04:09:57;1.90;;;1.70;;
4827;SDS011;2428;48.732;9.148;2023-07-30T04:12:23;1.80;;;1.70;;
4827;SDS011;2428;48.732;9.148;2023-07-30T04:14:48;6.20;;;1.50;;
4827;SDS011;2428;48.732;9.148;2023-07-30T04:17:14;3.43;;;2.23;;
4827;SDS011;2428;48.732;9.148;2023-07-30T04:19:40;1.60;;;1.50;;
4827;SDS011;2428;48.732;9.148;2023-07-30T04:22:05;1.63;;;1.53;;
4827;SDS011;2428;48.732;9.148;2023-07-30T04:24:31;1.97;;;1.87;;
4827;SDS011;2428;48.732;9.148;2023-07-30T04:26:56;2.10;;;1.63;;
4827;SDS011;2428;48.732;9.148;2023-07-30T04:29:22;2.33;;;2.13;;
4827;SDS011;2428;48.732;9.148;2023-07-30T04:31:47;2.43;;;2.10;;
4827;SDS011;2428;48.732;9.148;2023-07-30T04:34:13;2.80;;;2.17;;
4827;SDS011;2428;48.732;9.148;2023-07-30T04:36:38;2.10;;;1.87;;
4827;SDS011;2428;48.732;9.148;2023-07-30T04:39:04;2.10;;;1.60;;
4827;SDS011;2428;48.732;9.148;2023-07-30T04:41:29;2.30;;;2.10;;
4827;SDS011;2428;48.732;9.148;2023-07-30T04:43:55;1.80;;;1.70;;
4827;SDS011;2428;48.732;9.148;2023-07-30T04:46:21;2.30;;;2.00;;
4827;SDS011;2428;48.732;9.148;2023-07-30T04:48:46;1.80;;;1.60;;
4827;SDS011;2428;48.732;9.148;2023-07-30T04:51:12;3.30;;;1.87;;
4827;SDS011;2428;48.732;9.148;2023-07-30T04:53:37;2.03;;;1.53;;
4827;SDS011;2428;48.732;9.148;2023-07-30T04:56:03;1.97;;;1.87;;
4827;SDS011;2428;48.732;9.148;2023-07-30T04:58:28;2.00;;;1.90;;
4827;SDS011;2428;48.732;9.148;2023-07-30T05:00:54;1.77;;;1.63;;
4827;SDS011;2428;48.732;9.148;2023-07-30T05:03:20;1.83;;;1.60;;
4827;SDS011;2428;48.732;9.148;2023-07-30T05:05:46;2.40;;;2.20;;
4827;SDS011;2428;48.732;9.148;2023-07-30T05:08:11;2.33;;;1.90;;
4827;SDS011;2428;48.732;9.148;2023-07-30T05:10:37;2.47;;;2.37;;
4827;SDS011;2428;48.732;9.148;2023-07-30T05:13:02;3.37;;;2.20;;
4827;SDS011;2428;48.732;9.148;2023-07-30T05:15:28;3.20;;;1.80;;
4827;SDS011;2428;48.732;9.148;2023-07-30T05:17:53;2.57;;;1.90;;
4827;SDS011;2428;48.732;9.148;2023-07-30T05:20:19;3.80;;;1.67;;
4827;SDS011;2428;48.732;9.148;2023-07-30T05:22:44;2.50;;;2.30;;
4827;SDS011;2428;48.732;9.148;2023-07-30T05:25:10;1.63;;;1.53;;
4827;SDS011;2428;48.732;9.148;2023-07-30T05:27:36;2.53;;;2.30;;
4827;SDS011;2428;48.732;9.148;2023-07-30T05:30:01;2.50;;;2.10;;
4827;SDS011;2428;48.732;9.148;2023-07-30T05:32:27;2.00;;;1.90;;
4827;SDS011;2428;48.732;9.148;2023-07-30T05:34:53;3.20;;;2.37;;
4827;SDS011;2428;48.732;9.148;2023-07-30T05:37:18;1.60;;;1.50;;
4827;SDS011;2428;48.732;9.148;2023-07-30T05:39:44;1.90;;;1.63;;
4827;SDS011;2428;48.732;9.148;2023-07-30T05:42:10;2.63;;;1.90;;
4827;SDS011;2428;48.732;9.148;2023-07-30T05:44:35;2.63;;;1.47;;
4827;SDS011;2428;48.732;9.148;2023-07-30T05:47:01;1.97;;;1.77;;
4827;SDS011;2428;48.732;9.148;2023-07-30T05:49:26;1.70;;;1.60;;
4827;SDS011;2428;48.732;9.148;2023-07-30T05:51:52;1.40;;;1.30;;
4827;SDS011;2428;48.732;9.148;2023-07-30T05:54:17;1.60;;;1.30;;
4827;SDS011;2428;48.732;9.148;2023-07-30T05:56:43;1.40;;;1.30;;
4827;SDS011;2428;48.732;9.148;2023-07-30T05:59:08;1.30;;;1.20;;
4827;SDS011;2428;48.732;9.148;2023-07-30T06:01:34;3.80;;;1.70;;
4827;SDS011;2428;48.732;9.148;2023-07-30T06:04:00;1.27;;;1.17;;
4827;SDS011;2428;48.732;9.148;2023-07-30T06:06:25;1.87;;;1.20;;
4827;SDS011;2428;48.732;9.148;2023-07-30T06:08:54;3.60;;;1.77;;
4827;SDS011;2428;48.732;9.148;2023-07-30T06:11:20;2.50;;;1.70;;
4827;SDS011;2428;48.732;9.148;2023-07-30T06:13:46;1.00;;;1.00;;
4827;SDS011;2428;48.732;9.148;2023-07-30T06:16:12;1.70;;;1.40;;
4827;SDS011;2428;48.732;9.148;2023-07-30T06:18:38;1.83;;;1.73;;
4827;SDS011;2428;48.732;9.148;2023-07-30T06:21:03;1.27;;;1.17;;
4827;SDS011;2428;48.732;9.148;2023-07-30T06:23:29;1.90;;;1.80;;
4827;SDS011;2428;48.732;9.148;2023-07-30T06:25:55;1.37;;;1.17;;
4827;SDS011;2428;48.732;9.148;2023-07-30T06:28:20;1.40;;;1.27;;
4827;SDS011;2428;48.732;9.148;2023-07-30T06:30:46;1.73;;;1.63;;
4827;SDS011;2428;48.732;9.148;2023-07-30T06:33:11;1.93;;;1.73;;
4827;SDS011;2428;48.732;9.148;2023-07-30T06:35:38;1.50;;;1.13;;
4827;SDS011;2428;48.732;9.148;2023-07-30T06:38:05;1.93;;;1.00;;
4827;SDS011;2428;48.732;9.148;2023-07-30T06:40:33;1.73;;;1.60;;
4827;SDS011;2428;48.732;9.148;2023-07-30T06:42:58;1.00;;;1.00;;
4827;SDS011;2428;48.732;9.148;2023-07-30T06:45:24;1.23;;;1.13;;
4827;SDS011;2428;48.732;9.148;2023-07-30T06:47:49;1.50;;;1.40;;
4827;SDS011;2428;48.732;9.148;2023-07-30T06:50:15;1.87;;;1.30;;
4827;SDS011;2428;48.732;9.148;2023-07-30T06:52:40;0.73;;;0.73;;
4827;SDS011;2428;48.732;9.148;2023-07-30T06:55:06;1.10;;;0.90;;
4827;SDS011;2428;48.732;9.148;2023-07-30T06:57:32;1.33;;;1.20;;
4827;SDS011;2428;48.732;9.148;2023-07-30T06:59:57;1.20;;;1.10;;
4827;SDS011;2428;48.732;9.148;2023-07-30T07:02:23;0.80;;;0.80;;
4827;SDS011;2428;48.732;9.148;2023-07-30T07:04:49;1.07;;;1.00;;
4827;SDS011;2428;48.732;9.148;2023-07-30T07:07:15;0.70;;;0.70;;
4827;SDS011;2428;48.732;9.148;2023-07-30T07:09:41;0.90;;;0.90;;
4827;SDS011;2428;48.732;9.148;2023-07-30T07:12:07;1.13;;;0.83;;
4827;SDS011;2428;48.732;9.148;2023-07-30T07:14:32;1.33;;;1.23;;
4827;SDS011;2428;48.732;9.148;2023-07-30T07:16:58;1.10;;;1.00;;
4827;SDS011;2428;48.732;9.148;2023-07-30T07:19:24;0.87;;;0.80;;
4827;SDS011;2428;48.732;9.148;2023-07-30T07:21:49;1.23;;;1.13;;
4827;SDS011;2428;48.732;9.148;2023-07-30T07:24:15;1.37;;;1.27;;
4827;SDS011;2428;48.732;9.148;2023-07-30T07:26:41;1.90;;;1.23;;
4827;SDS011;2428;48.732;9.148;2023-07-30T07:29:07;0.80;;;0.80;;
4827;SDS011;2428;48.732;9.148;2023-07-30T07:31:33;1.13;;;1.07;;
4827;SDS011;2428;48.732;9.148;2023-07-30T07:33:58;0.73;;;0.70;;
4827;SDS011;2428;48.732;9.148;2023-07-30T07:36:24;0.90;;;0.90;;
4827;SDS011;2428;48.732;9.148;2023-07-30T07:38:49;0.93;;;0.93;;
4827;SDS011;2428;48.732;9.148;2023-07-30T07:41:15;1.23;;;1.23;;
4827;SDS011;2428;48.732;9.148;2023-07-30T07:43:42;1.20;;;1.10;;
4827;SDS011;2428;48.732;9.148;2023-07-30T07:46:08;0.80;;;0.80;;
4827;SDS011;2428;48.732;9.148;2023-07-30T07:48:38;1.00;;;0.90;;
4827;SDS011;2428;48.732;9.148;2023-07-30T07:51:05;1.10;;;1.07;;
4827;SDS011;2428;48.732;9.148;2023-07-30T07:53:31;1.20;;;1.10;;
4827;SDS011;2428;48.732;9.148;2023-07-30T07:55:56;1.30;;;1.20;;
4827;SDS011;2428;48.732;9.148;2023-07-30T07:58:22;1.00;;;0.90;;
4827;SDS011;2428;48.732;9.148;2023-07-30T08:00:48;1.03;;;0.93;;
4827;SDS011;2428;48.732;9.148;2023-07-30T08:03:13;1.20;;;1.00;;
4827;SDS011;2428;48.732;9.148;2023-07-30T08:05:39;1.33;;;1.23;;
4827;SDS011;2428;48.732;9.148;2023-07-30T08:08:04;0.77;;;0.70;;
4827;SDS011;2428;48.732;9.148;2023-07-30T08:10:30;1.13;;;1.00;;
4827;SDS011;2428;48.732;9.148;2023-07-30T08:12:55;0.97;;;0.87;;
4827;SDS011;2428;48.732;9.148;2023-07-30T08:15:21;0.47;;;0.47;;
4827;SDS011;2428;48.732;9.148;2023-07-30T08:17:47;1.40;;;1.03;;
4827;SDS011;2428;48.732;9.148;2023-07-30T08:20:12;0.77;;;0.70;;
4827;SDS011;2428;48.732;9.148;2023-07-30T08:22:38;1.00;;;0.90;;
4827;SDS011;2428;48.732;9.148;2023-07-30T08:25:04;0.70;;;0.70;;
4827;SDS011;2428;48.732;9.148;2023-07-30T08:27:29;1.00;;;1.00;;
4827;SDS011;2428;48.732;9.148;2023-07-30T08:29:55;1.20;;;1.03;;
4827;SDS011;2428;48.732;9.148;2023-07-30T08:32:21;1.77;;;1.37;;
4827;SDS011;2428;48.732;9.148;2023-07-30T08:34:46;0.90;;;0.77;;
4827;SDS011;2428;48.732;9.148;2023-07-30T08:37:12;1.37;;;1.27;;
4827;SDS011;2428;48.732;9.148;2023-07-30T08:39:37;0.87;;;0.87;;
4827;SDS011;2428;48.732;9.148;2023-07-30T08:42:03;1.40;;;1.30;;
4827;SDS011;2428;48.732;9.148;2023-07-30T08:44:29;0.70;;;0.60;;
4827;SDS011;2428;48.732;9.148;2023-07-30T08:46:54;1.30;;;1.20;;
4827;SDS011;2428;48.732;9.148;2023-07-30T08:49:20;0.90;;;0.90;;
4827;SDS011;2428;48.732;9.148;2023-07-30T08:51:46;1.40;;;1.30;;
4827;SDS011;2428;48.732;9.148;2023-07-30T08:54:17;1.30;;;1.30;;
4827;SDS011;2428;48.732;9.148;2023-07-30T08:56:43;1.30;;;1.20;;
4827;SDS011;2428;48.732;9.148;2023-07-30T08:59:09;1.30;;;1.20;;
4827;SDS011;2428;48.732;9.148;2023-07-30T09:01:37;1.80;;;1.70;;
4827;SDS011;2428;48.732;9.148;2023-07-30T09:04:04;1.27;;;1.17;;
4827;SDS011;2428;48.732;9.148;2023-07-30T09:06:32;1.07;;;1.00;;
4827;SDS011;2428;48.732;9.148;2023-07-30T09:08:57;4.10;;;1.13;;
4827;SDS011;2428;48.732;9.148;2023-07-30T09:11:26;1.70;;;1.43;;
4827;SDS011;2428;48.732;9.148;2023-07-30T09:13:54;2.03;;;1.73;;
4827;SDS011;2428;48.732;9.148;2023-07-30T09:16:23;1.67;;;1.43;;
4827;SDS011;2428;48.732;9.148;2023-07-30T09:18:50;1.20;;;1.20;;
4827;SDS011;2428;48.732;9.148;2023-07-30T09:21:18;1.17;;;1.00;;
4827;SDS011;2428;48.732;9.148;2023-07-30T09:23:44;1.43;;;1.23;;
4827;SDS011;2428;48.732;9.148;2023-07-30T09:26:11;1.30;;;1.00;;
4827;SDS011;2428;48.732;9.148;2023-07-30T09:28:37;1.30;;;1.20;;
4827;SDS011;2428;48.732;9.148;2023-07-30T09:31:04;1.23;;;1.00;;
4827;SDS011;2428;48.732;9.148;2023-07-30T09:33:51;0.87;;;0.80;;
4827;SDS011;2428;48.732;9.148;2023-07-30T09:36:18;1.40;;;1.10;;
4827;SDS011;2428;48.732;9.148;2023-07-30T09:38:44;1.73;;;1.53;;
4827;SDS011;2428;48.732;9.148;2023-07-30T09:41:11;1.33;;;1.23;;
4827;SDS011;2428;48.732;9.148;2023-07-30T09:43:37;1.07;;;1.07;;
4827;SDS011;2428;48.732;9.148;2023-07-30T09:46:03;1.17;;;0.97;;
4827;SDS011;2428;48.732;9.148;2023-07-30T09:48:30;1.50;;;1.33;;
4827;SDS011;2428;48.732;9.148;2023-07-30T09:51:00;1.60;;;1.43;;
4827;SDS011;2428;48.732;9.148;2023-07-30T09:53:31;1.33;;;1.23;;
4827;SDS011;2428;48.732;9.148;2023-07-30T09:56:01;1.13;;;1.03;;
4827;SDS011;2428;48.732;9.148;2023-07-30T09:58:27;1.23;;;1.23;;
4827;SDS011;2428;48.732;9.148;2023-07-30T10:00:53;1.90;;;1.70;;
4827;SDS011;2428;48.732;9.148;2023-07-30T10:03:23;1.60;;;1.50;;
4827;SDS011;2428;48.732;9.148;2023-07-30T10:05:48;0.90;;;0.90;;
4827;SDS011;2428;48.732;9.148;2023-07-30T10:08:23;1.10;;;1.00;;
4827;SDS011;2428;48.732;9.148;2023-07-30T10:10:50;1.70;;;1.50;;
4827;SDS011;2428;48.732;9.148;2023-07-30T10:13:18;1.17;;;1.13;;
4827;SDS011;2428;48.732;9.148;2023-07-30T10:15:45;1.10;;;1.00;;
4827;SDS011;2428;48.732;9.148;2023-07-30T10:18:11;1.30;;;1.20;;
4827;SDS011;2428;48.732;9.148;2023-07-30T10:20:37;1.43;;;1.33;;
4827;SDS011;2428;48.732;9.148;2023-07-30T10:23:04;0.93;;;0.93;;
4827;SDS011;2428;48.732;9.148;2023-07-30T10:25:46;1.60;;;1.50;;
4827;SDS011;2428;48.732;9.148;2023-07-30T10:28:31;2.03;;;1.43;;
4827;SDS011;2428;48.732;9.148;2023-07-30T10:31:01;1.50;;;1.40;;
4827;SDS011;2428;48.732;9.148;2023-07-30T10:36:12;1.00;;;1.00;;
4827;SDS011;2428;48.732;9.148;2023-07-30T10:38:37;1.40;;;1.30;;
4827;SDS011;2428;48.732;9.148;2023-07-30T10:46:12;1.27;;;1.17;;
4827;SDS011;2428;48.732;9.148;2023-07-30T10:48:39;1.83;;;0.97;;
4827;SDS011;2428;48.732;9.148;2023-07-30T10:51:11;1.30;;;1.13;;
4827;SDS011;2428;48.732;9.148;2023-07-30T10:53:43;1.30;;;1.00;;
4827;SDS011;2428;48.732;9.148;2023-07-30T10:56:10;1.17;;;1.10;;
4827;SDS011;2428;48.732;9.148;2023-07-30T10:58:36;0.80;;;0.80;;
4827;SDS011;2428;48.732;9.148;2023-07-30T11:01:06;1.77;;;1.50;;
4827;SDS011;2428;48.732;9.148;2023-07-30T11:03:33;0.73;;;0.73;;
4827;SDS011;2428;48.732;9.148;2023-07-30T11:05:59;1.17;;;1.07;;
4827;SDS011;2428;48.732;9.148;2023-07-30T11:08:35;1.30;;;1.10;;
4827;SDS011;2428;48.732;9.148;2023-07-30T11:11:01;1.00;;;0.90;;
4827;SDS011;2428;48.732;9.148;2023-07-30T11:13:27;1.23;;;1.13;;
4827;SDS011;2428;48.732;9.148;2023-07-30T11:15:53;1.20;;;1.10;;
4827;SDS011;2428;48.732;9.148;2023-07-30T11:18:19;1.40;;;1.30;;
4827;SDS011;2428;48.732;9.148;2023-07-30T11:20:45;1.20;;;1.03;;
4827;SDS011;2428;48.732;9.148;2023-07-30T11:23:18;1.17;;;1.03;;
4827;SDS011;2428;48.732;9.148;2023-07-30T11:25:45;1.10;;;1.00;;
4827;SDS011;2428;48.732;9.148;2023-07-30T11:28:12;1.83;;;1.67;;
4827;SDS011;2428;48.732;9.148;2023-07-30T11:30:38;1.30;;;1.10;;
4827;SDS011;2428;48.732;9.148;2023-07-30T11:33:04;2.60;;;1.43;;
4827;SDS011;2428;48.732;9.148;2023-07-30T11:35:30;1.73;;;1.10;;
4827;SDS011;2428;48.732;9.148;2023-07-30T11:37:56;0.80;;;0.80;;
4827;SDS011;2428;48.732;9.148;2023-07-30T11:40:22;1.20;;;1.10;;
4827;SDS011;2428;48.732;9.148;2023-07-30T11:42:48;1.27;;;1.17;;
4827;SDS011;2428;48.732;9.148;2023-07-30T11:45:18;1.60;;;1.40;;
4827;SDS011;2428;48.732;9.148;2023-07-30T11:47:45;1.57;;;1.20;;
4827;SDS011;2428;48.732;9.148;2023-07-30T11:50:11;1.53;;;1.43;;
4827;SDS011;2428;48.732;9.148;2023-07-30T11:52:50;1.67;;;1.30;;
4827;SDS011;2428;48.732;9.148;2023-07-30T11:55:16;2.60;;;1.57;;
4827;SDS011;2428;48.732;9.148;2023-07-30T11:57:42;1.43;;;1.30;;
4827;SDS011;2428;48.732;9.148;2023-07-30T12:00:08;1.63;;;1.40;;
4827;SDS011;2428;48.732;9.148;2023-07-30T12:02:34;1.70;;;1.60;;
4827;SDS011;2428;48.732;9.148;2023-07-30T12:05:00;1.23;;;1.13;;
4827;SDS011;2428;48.732;9.148;2023-07-30T12:07:26;1.50;;;1.40;;
4827;SDS011;2428;48.732;9.148;2023-07-30T12:09:51;1.50;;;1.40;;
4827;SDS011;2428;48.732;9.148;2023-07-30T12:12:17;1.93;;;1.57;;
4827;SDS011;2428;48.732;9.148;2023-07-30T12:17:14;1.47;;;1.30;;
4827;SDS011;2428;48.732;9.148;2023-07-30T12:19:40;1.50;;;1.40;;
4827;SDS011;2428;48.732;9.148;2023-07-30T12:22:09;1.37;;;1.27;;
4827;SDS011;2428;48.732;9.148;2023-07-30T12:24:35;1.70;;;1.47;;
4827;SDS011;2428;48.732;9.148;2023-07-30T12:27:01;1.60;;;1.50;;
4827;SDS011;2428;48.732;9.148;2023-07-30T12:29:26;1.53;;;1.43;;
4827;SDS011;2428;48.732;9.148;2023-07-30T12:31:52;1.70;;;1.23;;
4827;SDS011;2428;48.732;9.148;2023-07-30T12:34:22;1.60;;;1.50;;
4827;SDS011;2428;48.732;9.148;2023-07-30T12:36:48;1.10;;;1.10;;
4827;SDS011;2428;48.732;9.148;2023-07-30T12:39:13;1.63;;;1.53;;
4827;SDS011;2428;48.732;9.148;2023-07-30T12:41:39;1.37;;;1.27;;
4827;SDS011;2428;48.732;9.148;2023-07-30T12:44:05;1.83;;;1.30;;
4827;SDS011;2428;48.732;9.148;2023-07-30T12:46:30;1.37;;;1.20;;
4827;SDS011;2428;48.732;9.148;2023-07-30T12:48:57;1.63;;;1.33;;
4827;SDS011;2428;48.732;9.148;2023-07-30T12:51:29;1.17;;;1.07;;
4827;SDS011;2428;48.732;9.148;2023-07-30T12:53:55;2.43;;;1.30;;
4827;SDS011;2428;48.732;9.148;2023-07-30T12:56:21;1.50;;;1.40;;
4827;SDS011;2428;48.732;9.148;2023-07-30T12:58:47;2.03;;;1.30;;
4827;SDS011;2428;48.732;9.148;2023-07-30T13:01:12;2.20;;;1.33;;
4827;SDS011;2428;48.732;9.148;2023-07-30T13:03:38;1.77;;;1.03;;
4827;SDS011;2428;48.732;9.148;2023-07-30T13:06:04;2.57;;;1.97;;
4827;SDS011;2428;48.732;9.148;2023-07-30T13:08:29;1.17;;;1.07;;
4827;SDS011;2428;48.732;9.148;2023-07-30T13:10:55;2.23;;;1.40;;
4827;SDS011;2428;48.732;9.148;2023-07-30T13:13:21;1.53;;;1.23;;
4827;SDS011;2428;48.732;9.148;2023-07-30T13:15:46;1.73;;;1.57;;
4827;SDS011;2428;48.732;9.148;2023-07-30T13:18:12;2.00;;;1.23;;
4827;SDS011;2428;48.732;9.148;2023-07-30T13:20:37;1.80;;;1.67;;
4827;SDS011;2428;48.732;9.148;2023-07-30T13:23:03;1.80;;;1.70;;
4827;SDS011;2428;48.732;9.148;2023-07-30T13:25:28;1.70;;;1.33;;
4827;SDS011;2428;48.732;9.148;2023-07-30T13:27:54;1.47;;;1.13;;
4827;SDS011;2428;48.732;9.148;2023-07-30T13:30:20;1.37;;;1.27;;
4827;SDS011;2428;48.732;9.148;2023-07-30T13:32:45;2.43;;;1.73;;
4827;SDS011;2428;48.732;9.148;2023-07-30T13:35:11;1.30;;;1.13;;
4827;SDS011;2428;48.732;9.148;2023-07-30T13:37:36;1.10;;;1.00;;
4827;SDS011;2428;48.732;9.148;2023-07-30T13:40:02;1.40;;;1.40;;
4827;SDS011;2428;48.732;9.148;2023-07-30T13:42:28;1.80;;;1.70;;
4827;SDS011;2428;48.732;9.148;2023-07-30T13:44:54;1.30;;;1.10;;
4827;SDS011;2428;48.732;9.148;2023-07-30T13:47:19;1.93;;;1.80;;
4827;SDS011;2428;48.732;9.148;2023-07-30T13:49:45;2.43;;;1.80;;
4827;SDS011;2428;48.732;9.148;2023-07-30T13:52:12;1.87;;;1.20;;
4827;SDS011;2428;48.732;9.148;2023-07-30T13:54:38;1.37;;;1.27;;
4827;SDS011;2428;48.732;9.148;2023-07-30T13:57:04;1.60;;;1.50;;
4827;SDS011;2428;48.732;9.148;2023-07-30T13:59:30;1.73;;;1.50;;
4827;SDS011;2428;48.732;9.148;2023-07-30T14:01:56;1.60;;;1.50;;
4827;SDS011;2428;48.732;9.148;2023-07-30T14:04:21;2.93;;;1.27;;
4827;SDS011;2428;48.732;9.148;2023-07-30T14:06:47;1.30;;;1.20;;
4827;SDS011;2428;48.732;9.148;2023-07-30T14:09:12;1.70;;;1.60;;
4827;SDS011;2428;48.732;9.148;2023-07-30T14:11:38;0.93;;;0.93;;
4827;SDS011;2428;48.732;9.148;2023-07-30T14:14:07;1.60;;;1.50;;
4827;SDS011;2428;48.732;9.148;2023-07-30T14:16:33;1.40;;;1.20;;
4827;SDS011;2428;48.732;9.148;2023-07-30T14:18:59;1.47;;;1.33;;
4827;SDS011;2428;48.732;9.148;2023-07-30T14:21:24;1.73;;;1.20;;
4827;SDS011;2428;48.732;9.148;2023-07-30T14:23:50;1.60;;;1.50;;
4827;SDS011;2428;48.732;9.148;2023-07-30T14:26:15;2.70;;;1.17;;
4827;SDS011;2428;48.732;9.148;2023-07-30T14:28:41;0.90;;;0.90;;
4827;SDS011;2428;48.732;9.148;2023-07-30T14:31:06;1.30;;;1.20;;
4827;SDS011;2428;48.732;9.148;2023-07-30T14:33:32;2.33;;;1.33;;
4827;SDS011;2428;48.732;9.148;2023-07-30T14:35:58;1.37;;;1.27;;
4827;SDS011;2428;48.732;9.148;2023-07-30T14:38:23;1.40;;;1.30;;
4827;SDS011;2428;48.732;9.148;2023-07-30T14:40:49;1.87;;;1.23;;
4827;SDS011;2428;48.732;9.148;2023-07-30T14:43:14;1.47;;;1.37;;
4827;SDS011;2428;48.732;9.148;2023-07-30T14:45:40;1.80;;;1.27;;
4827;SDS011;2428;48.732;9.148;2023-07-30T14:48:05;2.00;;;1.57;;
4827;SDS011;2428;48.732;9.148;2023-07-30T14:50:31;1.80;;;1.30;;
4827;SDS011;2428;48.732;9.148;2023-07-30T14:52:57;0.93;;;0.90;;
4827;SDS011;2428;48.732;9.148;2023-07-30T14:55:22;1.10;;;1.10;;
4827;SDS011;2428;48.732;9.148;2023-07-30T14:57:48;1.13;;;1.03;;
4827;SDS011;2428;48.732;9.148;2023-07-30T15:00:13;1.70;;;1.10;;
4827;SDS011;2428;48.732;9.148;2023-07-30T15:02:41;1.37;;;1.27;;
4827;SDS011;2428;48.732;9.148;2023-07-30T15:05:07;1.63;;;1.23;;
4827;SDS011;2428;48.732;9.148;2023-07-30T15:07:33;1.20;;;1.10;;
4827;SDS011;2428;48.732;9.148;2023-07-30T15:09:59;0.80;;;0.80;;
4827;SDS011;2428;48.732;9.148;2023-07-30T15:12:25;1.40;;;1.07;;
4827;SDS011;2428;48.732;9.148;2023-07-30T15:14:50;1.13;;;1.03;;
4827;SDS011;2428;48.732;9.148;2023-07-30T15:17:16;2.20;;;0.90;;
4827;SDS011;2428;48.732;9.148;2023-07-30T15:19:41;1.33;;;1.23;;